Latest Weather Observations for Port Hedland

IDW60801

Issued at 3:05 am WST Wednesday 23 July 2014 (issued every 30 minutes, with the page automatically refreshed every 10 minutes)

About weather observations | Map of weather stations | Latest weather observations for WA | Other Formats
Station Details ID: 004032 Name: PORT HEDLAND AIRPORT Lat: -20.37 Lon: 118.63 Height: 6.4 m
Data from the previous 72 hours. | See also: Recent months at Port Hedland
Date/Time
WST
Temp
°C
App
Temp
°C
Dew
Point
Rel
Hum
%
Delta-T
°C
Wind Press
QNH
hPa
Press
MSL
hPa
Rain
since 9 am
mm
Dir
 
Spd
km/h
Gust
km/h
Spd
kts
Gust
kts
23/03:00am 13.5 11.0 9.8 78 1.9 SSE 13 19 7 10 1016.3 1016.3 0.0
23/02:30am 14.3 11.5 10.1 76 2.2 S 15 17 8 9 1016.3 - 0.0
23/02:00am 14.5 12.2 10.5 77 2.1 S 13 17 7 9 1016.4 - 0.0
23/01:30am 14.6 12.5 11.2 80 1.8 S 13 17 7 9 1016.4 - 0.0
23/01:00am 15.2 13.5 11.1 76 2.2 S 11 15 6 8 1016.3 - 0.0
23/12:30am 15.0 12.9 11.2 78 2.0 S 13 17 7 9 1016.4 - 0.0
23/12:00am 15.1 13.3 12.2 83 1.6 SSW 13 15 7 8 1016.5 1016.5 0.0
 
Date/Time
WST
Temp
°C
App
Temp
°C
Dew
Point
Rel
Hum
%
Delta-T
°C
Wind Press
QNH
hPa
Press
MSL
hPa
Rain
since 9 am
mm
Dir
 
Spd
km/h
Gust
km/h
Spd
kts
Gust
kts
22/11:30pm 15.0 13.4 12.8 87 1.2 SSW 13 17 7 9 1016.6 - 0.0
22/11:00pm 15.8 14.3 13.1 84 1.5 SSW 13 15 7 8 1016.7 - 0.0
22/10:30pm 15.8 14.6 12.9 83 1.6 SSW 11 13 6 7 1016.8 - 0.0
22/10:00pm 16.7 15.1 12.9 78 2.1 SW 13 15 7 8 1016.7 - 0.0
22/09:30pm 17.0 15.2 13.3 79 2.1 WSW 15 17 8 9 1016.6 - 0.0
22/09:00pm 16.6 14.3 11.8 73 2.6 WSW 15 20 8 11 1016.6 1016.6 0.0
22/08:30pm 19.1 17.0 9.7 54 5.0 SSW 11 15 6 8 1016.3 - 0.0
22/08:00pm 18.9 16.5 9.9 56 4.8 SSW 13 15 7 8 1016.1 - 0.0
22/07:30pm 19.5 17.6 10.4 55 4.9 SSW 11 13 6 7 1015.9 - 0.0
22/07:00pm 20.5 18.5 10.1 51 5.6 SSW 11 13 6 7 1015.5 - 0.0
22/06:30pm 21.4 19.2 9.2 45 6.5 SSW 11 15 6 8 1015.1 - 0.0
22/06:00pm 22.5 19.8 8.8 41 7.3 SSW 13 15 7 8 1014.7 1014.7 0.0
22/05:30pm 24.7 21.3 5.7 29 9.7 S 13 19 7 10 1014.4 - 0.0
22/05:00pm 26.0 22.6 6.1 28 10.3 S 13 19 7 10 1014.1 - 0.0
22/04:30pm 26.6 22.8 6.0 27 10.7 SSW 15 20 8 11 1013.9 - 0.0
22/04:00pm 26.9 23.1 7.4 29 10.4 SSW 17 24 9 13 1013.7 - 0.0
22/03:30pm 27.4 24.5 9.8 33 9.8 SSW 15 24 8 13 1013.7 - 0.0
22/03:00pm 26.8 23.9 11.1 37 8.9 SW 17 20 9 11 1013.8 1013.8 0.0
22/02:30pm 26.8 25.6 12.9 42 8.1 S 11 19 6 10 1013.9 - 0.0
22/02:00pm 26.6 25.1 13.1 43 7.9 S 13 19 7 10 1014.2 - 0.0
22/01:30pm 27.1 25.8 12.5 40 8.5 SW 11 17 6 9 1014.6 - 0.0
22/01:00pm 26.3 25.3 13.3 44 7.6 SSW 11 20 6 11 1015.0 - 0.0
22/12:30pm 25.2 24.7 16.0 56 5.6 S 13 19 7 10 1015.5 - 0.0
22/12:00pm 24.4 22.8 16.0 59 5.1 S 19 24 10 13 1015.9 1015.9 0.0
22/11:30am 24.0 23.0 16.7 63 4.5 SSW 17 24 9 13 1016.4 - 0.0
22/11:00am 23.2 21.9 16.8 67 3.9 SW 19 24 10 13 1016.8 - 0.0
22/10:30am 22.5 21.4 17.7 74 3.0 SSW 20 26 11 14 1017.1 - 0.0
22/10:00am 21.4 20.3 17.7 79 2.3 SSW 20 28 11 15 1017.4 - 0.0
22/09:47am 21.7 21.4 18.3 81 2.1 SSW 17 24 9 13 1017.5 - 0.0
22/09:30am 20.6 20.3 18.2 86 1.5 SSW 17 20 9 11 1017.6 - 0.0
22/09:00am 19.9 19.7 18.6 92 0.8 SW 17 22 9 12 1017.6 1017.6 14.0
22/08:30am 19.3 19.2 18.7 96 0.4 SSW 17 24 9 13 1017.3 - 14.0
22/08:00am 18.7 18.5 18.4 98 0.2 SW 17 24 9 13 1017.3 - 14.0
22/07:30am 18.5 18.5 18.2 98 0.2 SW 15 19 8 10 1017.0 - 14.0
22/07:00am 18.6 19.5 18.3 98 0.2 W 11 13 6 7 1016.9 - 14.0
22/06:30am 18.7 19.2 18.4 98 0.2 SW 13 15 7 8 1016.5 - 14.0
22/06:00am 18.9 20.3 18.6 98 0.2 WSW 9 13 5 7 1016.0 1016.0 14.0
22/05:42am 18.9 20.7 18.7 99 0.1 WSW 7 9 4 5 1015.8 - 14.0
22/05:30am 18.9 20.3 18.7 99 0.1 WSW 9 11 5 6 1015.8 - 14.0
22/05:16am 19.0 20.5 18.8 99 0.1 W 9 15 5 8 1015.8 - 14.0
22/05:00am 18.9 20.7 18.7 99 0.1 SW 7 9 4 5 1015.6 - 14.0
22/04:30am 18.9 21.2 18.6 98 0.2 N 4 9 2 5 1015.3 - 14.0
22/04:04am 18.8 21.9 18.6 99 0.1 CALM 0 0 0 0 1015.3 - 14.0
22/04:00am 18.8 21.9 18.6 99 0.1 CALM 0 0 0 0 1015.3 - 14.0
22/03:30am 18.7 21.7 18.5 99 0.1 CALM 0 0 0 0 1015.2 - 14.0
22/03:00am 18.7 20.5 18.4 98 0.2 N 6 7 3 4 1015.4 1015.4 14.0
22/02:30am 18.8 20.5 18.5 98 0.2 N 7 9 4 5 1015.6 - 14.0
22/02:00am 18.8 19.7 18.5 98 0.2 N 11 13 6 7 1015.8 - 14.0
22/01:30am 18.8 19.4 18.5 98 0.2 NNW 13 17 7 9 1016.0 - 13.8
22/01:29am 18.8 19.4 18.5 98 0.2 NNW 13 17 7 9 1016.0 - 13.8
22/01:10am 18.5 18.9 18.2 98 0.2 N 13 19 7 10 1016.2 - 13.4
22/01:00am 18.6 18.7 18.3 98 0.2 NNW 15 24 8 13 1016.3 - 12.6
22/12:30am 19.1 18.5 18.8 98 0.2 N 20 28 11 15 1016.0 - 10.8
22/12:17am 19.1 18.4 18.6 97 0.3 WNW 20 26 11 14 1016.2 - 9.8
22/12:04am 19.1 18.7 18.8 98 0.2 W 19 24 10 13 1016.1 - 9.4
22/12:00am 19.1 19.0 18.8 98 0.2 W 17 22 9 12 1016.1 1016.1 9.4
 
Date/Time
WST
Temp
°C
App
Temp
°C
Dew
Point
Rel
Hum
%
Delta-T
°C
Wind Press
QNH
hPa
Press
MSL
hPa
Rain
since 9 am
mm
Dir
 
Spd
km/h
Gust
km/h
Spd
kts
Gust
kts
21/11:30pm 18.7 19.6 18.5 99 0.1 SSW 11 15 6 8 1016.0 - 7.6
21/11:25pm 18.7 19.2 18.4 98 0.2 SSW 13 17 7 9 1016.0 - 7.4
21/11:11pm 18.7 18.9 18.5 99 0.1 SW 15 19 8 10 1016.1 - 6.6
21/11:00pm 18.8 19.0 18.6 99 0.1 SW 15 19 8 10 1016.0 - 6.4
21/10:40pm 18.9 19.1 18.6 98 0.2 SW 15 19 8 10 1016.1 - 5.0
21/10:37pm 18.9 19.1 18.6 98 0.2 SW 15 19 8 10 1016.1 - 4.8
21/10:30pm 18.9 18.7 18.6 98 0.2 SW 17 20 9 11 1016.3 - 4.6
21/10:19pm 19.0 19.3 18.7 98 0.2 WSW 15 20 8 11 1016.2 - 4.0
21/10:00pm 19.1 19.7 18.6 97 0.3 S 13 15 7 8 1015.9 - 3.4
21/09:30pm 19.2 19.8 18.7 97 0.3 SSW 13 15 7 8 1015.9 - 3.0
21/09:00pm 19.2 20.2 18.6 96 0.4 SSW 11 15 6 8 1015.9 1015.9 3.0
21/08:30pm 19.6 21.1 19.0 96 0.4 SSW 9 11 5 6 1016.0 - 2.6
21/08:00pm 19.7 21.1 18.6 93 0.7 S 9 11 5 6 1015.7 - 1.8
21/07:30pm 19.8 21.0 18.3 91 0.9 SE 9 11 5 6 1015.5 - 1.6
21/07:00pm 20.0 21.7 18.4 90 1.0 N 7 13 4 7 1015.5 - 1.2
21/06:30pm 19.9 22.3 18.0 89 1.2 E 2 6 1 3 1015.0 - 1.0
21/06:00pm 19.6 19.8 17.6 88 1.2 ENE 13 19 7 10 1014.5 1014.5 1.0
21/05:30pm 19.9 20.2 17.8 88 1.3 E 13 17 7 9 1014.6 - 1.0
21/05:00pm 20.1 19.4 18.2 89 1.2 ENE 19 22 10 12 1014.4 - 1.0
21/04:30pm 20.0 20.3 18.7 92 0.8 N 15 26 8 14 1015.2 - 0.4
21/04:00pm 22.1 19.9 17.0 73 3.1 N 24 30 13 16 1015.1 - 0.2
21/03:30pm 24.0 22.8 16.1 61 4.8 N 17 20 9 11 1014.4 - 0.2
21/03:00pm 24.1 24.2 16.4 62 4.7 NNE 11 15 6 8 1014.5 1014.5 0.0
21/02:30pm 23.8 23.9 16.6 64 4.4 NNE 11 15 6 8 1014.6 - 0.0
21/02:00pm 24.1 23.5 16.6 63 4.6 NNE 15 20 8 11 1014.8 - 0.0
21/01:30pm 24.5 23.4 16.3 60 5.0 NE 17 22 9 12 1014.9 - 0.0
21/01:00pm 24.1 23.5 15.6 59 5.1 NE 13 17 7 9 1015.4 - 0.0
21/12:30pm 23.4 23.0 16.3 64 4.3 NNE 13 17 7 9 1016.1 - 0.0
21/12:00pm 24.1 24.5 16.4 62 4.7 N 9 15 5 8 1016.4 1016.4 0.0
21/11:30am 24.5 25.1 16.9 62 4.7 NE 9 13 5 7 1016.7 - 0.0
21/11:00am 24.5 25.3 17.2 63 4.5 ENE 9 15 5 8 1017.0 - 0.0
21/10:30am 23.7 24.3 17.6 68 3.8 E 11 15 6 8 1017.3 - 0.0
21/10:00am 22.8 24.6 19.5 81 2.1 E 9 13 5 7 1017.5 - 0.0
21/09:30am 21.1 23.1 18.7 86 1.5 SE 6 7 3 4 1017.8 - 0.0
21/09:00am 20.9 22.8 19.0 89 1.2 S 7 9 4 5 1017.7 1017.7 4.8
21/08:30am 20.0 21.2 19.0 94 0.6 SSW 11 13 6 7 1017.4 - 4.8
21/08:00am 19.7 21.1 18.7 94 0.6 S 9 13 5 7 1017.0 - 4.8
21/07:30am 19.4 20.8 18.6 95 0.5 S 9 11 5 6 1017.0 - 4.8
21/07:00am 19.2 20.9 18.4 95 0.5 SE 7 9 4 5 1016.9 - 4.8
21/06:30am 19.0 20.8 18.4 96 0.4 SSE 6 7 3 4 1016.6 - 4.8
21/06:00am 19.1 21.0 18.5 96 0.4 SSW 6 7 3 4 1016.3 1016.3 4.8
21/05:30am 19.0 20.7 18.4 96 0.4 S 7 9 4 5 1016.0 - 4.8
21/05:00am 19.0 20.1 18.0 94 0.6 ESE 9 13 5 7 1015.8 - 4.8
21/04:30am 19.0 19.0 18.2 95 0.5 SSE 15 20 8 11 1015.6 - 4.8
21/04:00am 18.9 17.6 18.1 95 0.5 SSE 22 32 12 17 1015.3 - 4.6
21/03:48am 18.8 16.5 18.5 98 0.2 SSE 28 35 15 19 1015.2 - 4.6
21/03:30am 18.9 19.4 18.4 97 0.3 SE 13 17 7 9 1016.1 - 4.2
21/03:00am 19.0 20.7 18.4 96 0.4 E 7 11 4 6 1016.4 1016.4 2.8
21/02:30am 19.0 20.5 18.0 94 0.6 E 7 9 4 5 1016.3 - 2.0
21/02:00am 19.3 19.9 17.8 91 0.9 ENE 11 13 6 7 1016.4 - 1.2
21/01:30am 19.3 20.4 18.0 92 0.8 ENE 9 13 5 7 1016.6 - 1.0
21/01:00am 19.3 20.5 18.2 93 0.7 NNE 9 9 5 5 1016.9 - 1.0
21/12:30am 19.3 20.5 18.2 93 0.7 NNE 9 13 5 7 1016.9 - 1.0
21/12:00am 19.3 20.5 18.2 93 0.7 NE 9 11 5 6 1016.8 1016.8 1.0
 
Date/Time
WST
Temp
°C
App
Temp
°C
Dew
Point
Rel
Hum
%
Delta-T
°C
Wind Press
QNH
hPa
Press
MSL
hPa
Rain
since 9 am
mm
Dir
 
Spd
km/h
Gust
km/h
Spd
kts
Gust
kts
20/11:30pm 19.3 20.8 18.0 92 0.8 E 7 9 4 5 1016.9 - 0.8
20/11:00pm 19.3 21.1 18.3 94 0.6 ENE 6 9 3 5 1017.3 - 0.8
20/10:30pm 19.2 21.4 18.4 95 0.5 N 4 7 2 4 1017.3 - 0.8
20/10:00pm 19.1 21.7 18.5 96 0.4 S 2 7 1 4 1017.3 - 0.8
20/09:30pm 19.1 21.4 18.5 96 0.4 S 4 6 2 3 1017.3 - 0.8
20/09:00pm 19.2 20.6 17.9 92 0.8 S 7 9 4 5 1017.2 1017.2 0.8
20/08:30pm 19.1 20.4 18.5 96 0.4 S 9 11 5 6 1017.4 - 0.8
20/08:00pm 19.0 20.8 18.2 95 0.5 SSW 6 9 3 5 1017.6 - 0.8
20/07:30pm 18.8 19.9 18.1 96 0.4 W 9 9 5 5 1017.8 - 0.8
20/07:00pm 19.0 20.5 17.7 92 0.8 SE 6 7 3 4 1017.2 - 0.4
20/06:30pm 18.7 19.5 17.2 91 0.9 SSE 9 13 5 7 1016.9 - 0.4
20/06:00pm 18.5 18.7 16.8 90 1.0 S 11 15 6 8 1016.5 1016.5 0.4
20/05:30pm 18.2 17.1 16.4 89 1.1 SSE 17 24 9 13 1016.3 - 0.4
20/05:00pm 18.8 19.0 15.8 83 1.8 ESE 9 13 5 7 1016.7 - 0.4
20/04:30pm 18.8 18.0 15.2 79 2.1 ENE 13 17 7 9 1016.3 - 0.4
20/04:00pm 18.5 16.7 16.0 85 1.5 NNE 20 24 11 13 1016.3 - 0.4
20/03:30pm 18.6 15.1 15.5 82 1.8 NNE 28 33 15 18 1016.1 - 0.4
20/03:00pm 19.7 17.3 16.5 82 1.9 NNE 24 30 13 16 1016.0 1016.0 0.4
20/02:30pm 19.9 17.9 17.3 85 1.6 NNE 24 30 13 16 1015.9 - 0.4
20/02:00pm 19.7 17.8 17.6 88 1.3 NNE 24 30 13 16 1016.1 - 0.4
20/01:30pm 20.4 16.7 15.1 71 3.1 NNE 28 37 15 20 1016.4 - 0.0
20/01:00pm 21.1 17.9 15.4 70 3.4 NNE 26 32 14 17 1016.5 - 0.0
20/12:30pm 22.0 19.4 15.8 68 3.7 N 24 32 13 17 1016.7 - 0.0
20/12:00pm 23.2 21.6 15.0 60 4.9 NNE 17 24 9 13 1016.8 1016.8 0.0
20/11:30am 24.5 22.1 13.7 51 6.3 NE 19 20 10 11 1016.9 - 0.0
20/11:00am 25.1 23.2 13.0 47 7.0 ESE 15 20 8 11 1017.1 - 0.0
20/10:30am 24.4 23.0 13.4 50 6.4 ESE 13 20 7 11 1017.6 - 0.0
20/10:00am 24.3 21.9 13.7 51 6.2 ESE 19 24 10 13 1017.5 - 0.0
20/09:30am 24.1 22.2 14.1 53 5.9 SE 17 22 9 12 1017.7 - 0.0
20/09:00am 22.7 21.5 13.9 57 5.1 SE 13 19 7 10 1018.0 1018.0 0.0
20/08:30am 20.6 19.6 14.6 68 3.5 SSE 13 17 7 9 1017.6 - 0.0
20/08:00am 19.4 17.8 14.9 75 2.6 SSE 17 20 9 11 1017.0 - 0.0
20/07:30am 16.2 16.0 14.8 91 0.8 S 9 11 5 6 1016.9 - 0.0
20/07:00am 16.2 16.0 14.8 91 0.8 SSE 9 9 5 5 1016.5 - 0.0
20/06:30am 16.1 16.0 14.9 93 0.7 S 9 11 5 6 1016.2 - 0.0
20/06:00am 16.6 16.9 15.0 90 0.9 SSE 7 7 4 4 1016.0 1016.0 0.0
20/05:30am 16.9 17.2 15.0 88 1.1 SSE 7 11 4 6 1015.5 - 0.0
20/05:00am 17.4 17.8 15.2 87 1.3 SE 7 9 4 5 1015.6 - 0.0
20/04:30am 17.8 17.4 15.2 85 1.5 SSE 11 13 6 7 1015.4 - 0.0
20/04:00am 17.8 17.4 15.2 85 1.5 SSE 11 15 6 8 1015.5 - 0.0
20/03:30am 17.5 17.9 15.3 87 1.3 SSE 7 9 4 5 1015.7 - 0.0

Other Formats:

Comma delimited format used in spreadsheet applications
http://www.bom.gov.au/fwo/IDW60801/IDW60801.94312.axf

JavaScript Object Notation format (JSON) in row-major order
http://www.bom.gov.au/fwo/IDW60801/IDW60801.94312.json